sensor_id;sensor_type;location;lat;lon;timestamp;temperature;humidity
36458;DHT22;22480;50.546;12.292;2022-07-12T00:02:11;11.40;99.90
36458;DHT22;22480;50.546;12.292;2022-07-12T00:04:37;11.50;99.90
36458;DHT22;22480;50.546;12.292;2022-07-12T00:07:03;11.40;99.90
36458;DHT22;22480;50.546;12.292;2022-07-12T00:09:29;11.60;99.90
36458;DHT22;22480;50.546;12.292;2022-07-12T00:11:55;11.60;99.90
36458;DHT22;22480;50.546;12.292;2022-07-12T00:14:21;11.60;99.90
36458;DHT22;22480;50.546;12.292;2022-07-12T00:16:47;11.60;99.90
36458;DHT22;22480;50.546;12.292;2022-07-12T00:19:12;11.50;99.90
36458;DHT22;22480;50.546;12.292;2022-07-12T00:21:38;11.50;99.90
36458;DHT22;22480;50.546;12.292;2022-07-12T00:24:04;11.40;99.90
36458;DHT22;22480;50.546;12.292;2022-07-12T00:26:29;11.40;99.90
36458;DHT22;22480;50.546;12.292;2022-07-12T00:28:55;11.30;99.90
36458;DHT22;22480;50.546;12.292;2022-07-12T00:31:22;11.40;99.90
36458;DHT22;22480;50.546;12.292;2022-07-12T00:33:48;11.40;99.90
36458;DHT22;22480;50.546;12.292;2022-07-12T00:36:14;11.40;99.90
36458;DHT22;22480;50.546;12.292;2022-07-12T00:38:39;11.40;99.90
36458;DHT22;22480;50.546;12.292;2022-07-12T00:41:05;11.40;99.90
36458;DHT22;22480;50.546;12.292;2022-07-12T00:43:31;11.40;99.90
36458;DHT22;22480;50.546;12.292;2022-07-12T00:45:57;11.40;99.90
36458;DHT22;22480;50.546;12.292;2022-07-12T00:48:24;11.40;99.90
36458;DHT22;22480;50.546;12.292;2022-07-12T00:50:50;11.40;99.90
36458;DHT22;22480;50.546;12.292;2022-07-12T00:53:15;11.40;99.90
36458;DHT22;22480;50.546;12.292;2022-07-12T00:55:43;11.40;99.90
36458;DHT22;22480;50.546;12.292;2022-07-12T00:58:09;11.40;99.90
36458;DHT22;22480;50.546;12.292;2022-07-12T01:00:35;11.50;99.90
36458;DHT22;22480;50.546;12.292;2022-07-12T01:03:02;11.70;99.90
36458;DHT22;22480;50.546;12.292;2022-07-12T01:05:28;11.70;99.90
36458;DHT22;22480;50.546;12.292;2022-07-12T01:07:55;11.90;99.90
36458;DHT22;22480;50.546;12.292;2022-07-12T01:10:22;11.90;99.90
36458;DHT22;22480;50.546;12.292;2022-07-12T01:12:48;12.00;99.90
36458;DHT22;22480;50.546;12.292;2022-07-12T01:15:14;12.10;99.90
36458;DHT22;22480;50.546;12.292;2022-07-12T01:17:40;12.10;99.90
36458;DHT22;22480;50.546;12.292;2022-07-12T01:20:06;12.10;99.90
36458;DHT22;22480;50.546;12.292;2022-07-12T01:22:37;12.20;99.90
36458;DHT22;22480;50.546;12.292;2022-07-12T01:25:04;12.30;99.90
36458;DHT22;22480;50.546;12.292;2022-07-12T01:27:32;12.30;99.90
36458;DHT22;22480;50.546;12.292;2022-07-12T01:29:58;12.40;99.90
36458;DHT22;22480;50.546;12.292;2022-07-12T01:32:23;12.40;99.90
36458;DHT22;22480;50.546;12.292;2022-07-12T01:34:54;12.50;99.90
36458;DHT22;22480;50.546;12.292;2022-07-12T01:37:22;12.50;99.90
36458;DHT22;22480;50.546;12.292;2022-07-12T01:39:50;12.60;99.90
36458;DHT22;22480;50.546;12.292;2022-07-12T01:42:16;12.60;99.90
36458;DHT22;22480;50.546;12.292;2022-07-12T01:44:42;12.70;99.90
36458;DHT22;22480;50.546;12.292;2022-07-12T01:47:07;12.80;99.90
36458;DHT22;22480;50.546;12.292;2022-07-12T01:49:33;12.80;99.90
36458;DHT22;22480;50.546;12.292;2022-07-12T01:51:59;12.80;99.90
36458;DHT22;22480;50.546;12.292;2022-07-12T01:54:25;12.90;99.90
36458;DHT22;22480;50.546;12.292;2022-07-12T01:56:54;12.90;99.90
36458;DHT22;22480;50.546;12.292;2022-07-12T01:59:20;13.00;99.90
36458;DHT22;22480;50.546;12.292;2022-07-12T02:01:47;13.00;99.90
36458;DHT22;22480;50.546;12.292;2022-07-12T02:04:17;13.10;99.90
36458;DHT22;22480;50.546;12.292;2022-07-12T02:06:44;13.10;99.90
36458;DHT22;22480;50.546;12.292;2022-07-12T02:09:11;13.10;99.90
36458;DHT22;22480;50.546;12.292;2022-07-12T02:11:37;13.10;99.90
36458;DHT22;22480;50.546;12.292;2022-07-12T02:14:03;13.10;99.90
36458;DHT22;22480;50.546;12.292;2022-07-12T02:16:28;13.10;99.90
36458;DHT22;22480;50.546;12.292;2022-07-12T02:18:54;13.10;99.90
36458;DHT22;22480;50.546;12.292;2022-07-12T02:21:20;13.10;99.90
36458;DHT22;22480;50.546;12.292;2022-07-12T02:23:45;13.10;99.90
36458;DHT22;22480;50.546;12.292;2022-07-12T02:26:11;13.10;99.90
36458;DHT22;22480;50.546;12.292;2022-07-12T02:28:37;13.20;99.90
36458;DHT22;22480;50.546;12.292;2022-07-12T02:31:02;13.30;99.90
36458;DHT22;22480;50.546;12.292;2022-07-12T02:33:28;13.30;99.90
36458;DHT22;22480;50.546;12.292;2022-07-12T02:35:54;13.30;99.90
36458;DHT22;22480;50.546;12.292;2022-07-12T02:38:19;13.40;99.90
36458;DHT22;22480;50.546;12.292;2022-07-12T02:40:47;13.40;99.90
36458;DHT22;22480;50.546;12.292;2022-07-12T02:43:25;13.40;99.90
36458;DHT22;22480;50.546;12.292;2022-07-12T02:45:52;13.50;99.90
36458;DHT22;22480;50.546;12.292;2022-07-12T02:48:19;13.50;99.90
36458;DHT22;22480;50.546;12.292;2022-07-12T02:50:45;13.40;99.90
36458;DHT22;22480;50.546;12.292;2022-07-12T02:53:11;13.50;99.90
36458;DHT22;22480;50.546;12.292;2022-07-12T02:55:37;13.50;99.90
36458;DHT22;22480;50.546;12.292;2022-07-12T02:58:04;13.50;99.90
36458;DHT22;22480;50.546;12.292;2022-07-12T03:00:33;13.50;99.90
36458;DHT22;22480;50.546;12.292;2022-07-12T03:03:00;13.50;99.90
36458;DHT22;22480;50.546;12.292;2022-07-12T03:05:26;13.50;99.90
36458;DHT22;22480;50.546;12.292;2022-07-12T03:07:52;13.60;99.90
36458;DHT22;22480;50.546;12.292;2022-07-12T03:10:17;13.50;99.90
36458;DHT22;22480;50.546;12.292;2022-07-12T03:12:43;13.60;99.90
36458;DHT22;22480;50.546;12.292;2022-07-12T03:15:09;13.60;99.90
36458;DHT22;22480;50.546;12.292;2022-07-12T03:17:35;13.60;99.90
36458;DHT22;22480;50.546;12.292;2022-07-12T03:20:01;13.60;99.90
36458;DHT22;22480;50.546;12.292;2022-07-12T03:22:28;13.60;99.90
36458;DHT22;22480;50.546;12.292;2022-07-12T03:24:53;13.60;99.90
36458;DHT22;22480;50.546;12.292;2022-07-12T03:27:19;13.70;99.90
36458;DHT22;22480;50.546;12.292;2022-07-12T03:29:45;13.70;99.90
36458;DHT22;22480;50.546;12.292;2022-07-12T03:32:10;13.70;99.90
36458;DHT22;22480;50.546;12.292;2022-07-12T03:34:36;13.70;99.90
36458;DHT22;22480;50.546;12.292;2022-07-12T03:37:03;13.70;99.90
36458;DHT22;22480;50.546;12.292;2022-07-12T03:39:29;13.70;99.90
36458;DHT22;22480;50.546;12.292;2022-07-12T03:41:55;13.70;99.90
36458;DHT22;22480;50.546;12.292;2022-07-12T03:44:20;13.70;99.90
36458;DHT22;22480;50.546;12.292;2022-07-12T03:46:46;13.70;99.90
36458;DHT22;22480;50.546;12.292;2022-07-12T03:49:13;13.70;99.90
36458;DHT22;22480;50.546;12.292;2022-07-12T03:51:39;13.70;99.90
36458;DHT22;22480;50.546;12.292;2022-07-12T03:54:06;13.70;99.90
36458;DHT22;22480;50.546;12.292;2022-07-12T03:56:36;13.70;99.90
36458;DHT22;22480;50.546;12.292;2022-07-12T03:59:20;13.60;99.90
36458;DHT22;22480;50.546;12.292;2022-07-12T04:01:46;13.60;99.90
36458;DHT22;22480;50.546;12.292;2022-07-12T04:04:12;13.60;99.90
36458;DHT22;22480;50.546;12.292;2022-07-12T04:06:38;13.60;99.90
36458;DHT22;22480;50.546;12.292;2022-07-12T04:09:06;13.70;99.90
36458;DHT22;22480;50.546;12.292;2022-07-12T04:11:33;13.70;99.90
36458;DHT22;22480;50.546;12.292;2022-07-12T04:13:59;13.70;99.90
36458;DHT22;22480;50.546;12.292;2022-07-12T04:16:25;13.80;99.90
36458;DHT22;22480;50.546;12.292;2022-07-12T04:18:52;13.80;99.90
36458;DHT22;22480;50.546;12.292;2022-07-12T04:21:18;13.90;99.90
36458;DHT22;22480;50.546;12.292;2022-07-12T04:23:44;14.00;99.90
36458;DHT22;22480;50.546;12.292;2022-07-12T04:26:10;14.10;99.90
36458;DHT22;22480;50.546;12.292;2022-07-12T04:28:35;14.10;99.90
36458;DHT22;22480;50.546;12.292;2022-07-12T04:31:01;14.10;99.90
36458;DHT22;22480;50.546;12.292;2022-07-12T04:33:27;14.10;99.90
36458;DHT22;22480;50.546;12.292;2022-07-12T04:35:53;14.10;99.90
36458;DHT22;22480;50.546;12.292;2022-07-12T04:38:19;14.20;99.90
36458;DHT22;22480;50.546;12.292;2022-07-12T04:40:45;14.30;99.90
36458;DHT22;22480;50.546;12.292;2022-07-12T04:43:11;14.30;99.90
36458;DHT22;22480;50.546;12.292;2022-07-12T04:45:36;14.40;99.90
36458;DHT22;22480;50.546;12.292;2022-07-12T04:48:02;14.40;99.90
36458;DHT22;22480;50.546;12.292;2022-07-12T04:50:28;14.40;99.90
36458;DHT22;22480;50.546;12.292;2022-07-12T04:52:54;14.50;99.90
36458;DHT22;22480;50.546;12.292;2022-07-12T04:55:19;14.60;99.90
36458;DHT22;22480;50.546;12.292;2022-07-12T04:57:45;14.70;99.90
36458;DHT22;22480;50.546;12.292;2022-07-12T05:00:11;14.80;99.90
36458;DHT22;22480;50.546;12.292;2022-07-12T05:02:37;15.00;99.90
36458;DHT22;22480;50.546;12.292;2022-07-12T05:05:03;15.00;99.90
36458;DHT22;22480;50.546;12.292;2022-07-12T05:07:29;15.00;99.90
36458;DHT22;22480;50.546;12.292;2022-07-12T05:09:54;15.10;99.90
36458;DHT22;22480;50.546;12.292;2022-07-12T05:12:20;15.20;99.90
36458;DHT22;22480;50.546;12.292;2022-07-12T05:14:46;15.30;99.90
36458;DHT22;22480;50.546;12.292;2022-07-12T05:17:12;15.40;99.90
36458;DHT22;22480;50.546;12.292;2022-07-12T05:19:38;15.50;99.90
36458;DHT22;22480;50.546;12.292;2022-07-12T05:22:04;15.60;99.90
36458;DHT22;22480;50.546;12.292;2022-07-12T05:24:29;15.60;99.90
36458;DHT22;22480;50.546;12.292;2022-07-12T05:26:55;15.70;99.90
36458;DHT22;22480;50.546;12.292;2022-07-12T05:29:21;15.80;99.90
36458;DHT22;22480;50.546;12.292;2022-07-12T05:31:47;15.80;99.90
36458;DHT22;22480;50.546;12.292;2022-07-12T05:34:12;15.80;99.90
36458;DHT22;22480;50.546;12.292;2022-07-12T05:36:38;15.80;99.90
36458;DHT22;22480;50.546;12.292;2022-07-12T05:39:04;15.90;99.90
36458;DHT22;22480;50.546;12.292;2022-07-12T05:41:30;15.90;99.90
36458;DHT22;22480;50.546;12.292;2022-07-12T05:43:55;15.90;99.90
36458;DHT22;22480;50.546;12.292;2022-07-12T05:46:21;16.10;99.90
36458;DHT22;22480;50.546;12.292;2022-07-12T05:48:47;16.10;99.90
36458;DHT22;22480;50.546;12.292;2022-07-12T05:51:13;16.10;99.90
36458;DHT22;22480;50.546;12.292;2022-07-12T05:53:58;16.20;99.90
36458;DHT22;22480;50.546;12.292;2022-07-12T05:56:24;16.20;99.90
36458;DHT22;22480;50.546;12.292;2022-07-12T05:58:49;16.30;99.90
36458;DHT22;22480;50.546;12.292;2022-07-12T06:01:16;16.40;99.90
36458;DHT22;22480;50.546;12.292;2022-07-12T06:03:42;16.50;99.90
36458;DHT22;22480;50.546;12.292;2022-07-12T06:06:08;16.50;99.90
36458;DHT22;22480;50.546;12.292;2022-07-12T06:08:34;16.50;99.90
36458;DHT22;22480;50.546;12.292;2022-07-12T06:10:59;16.60;99.90
36458;DHT22;22480;50.546;12.292;2022-07-12T06:13:25;16.60;99.90
36458;DHT22;22480;50.546;12.292;2022-07-12T06:15:51;16.50;99.90
36458;DHT22;22480;50.546;12.292;2022-07-12T06:18:17;16.90;99.90
36458;DHT22;22480;50.546;12.292;2022-07-12T06:20:43;17.50;99.90
36458;DHT22;22480;50.546;12.292;2022-07-12T06:23:08;17.80;99.90
36458;DHT22;22480;50.546;12.292;2022-07-12T06:25:34;18.10;99.90
36458;DHT22;22480;50.546;12.292;2022-07-12T06:28:01;18.40;99.90
36458;DHT22;22480;50.546;12.292;2022-07-12T06:30:27;18.60;99.90
36458;DHT22;22480;50.546;12.292;2022-07-12T06:32:52;19.00;99.90
36458;DHT22;22480;50.546;12.292;2022-07-12T06:35:18;19.00;99.90
36458;DHT22;22480;50.546;12.292;2022-07-12T06:37:44;19.10;99.90
36458;DHT22;22480;50.546;12.292;2022-07-12T06:40:10;19.10;99.90
36458;DHT22;22480;50.546;12.292;2022-07-12T06:42:36;19.10;99.90
36458;DHT22;22480;50.546;12.292;2022-07-12T06:45:03;19.50;99.90
36458;DHT22;22480;50.546;12.292;2022-07-12T06:47:29;20.10;99.90
36458;DHT22;22480;50.546;12.292;2022-07-12T06:49:54;20.90;99.90
36458;DHT22;22480;50.546;12.292;2022-07-12T06:52:20;21.20;99.90
36458;DHT22;22480;50.546;12.292;2022-07-12T06:54:46;21.10;99.90
36458;DHT22;22480;50.546;12.292;2022-07-12T06:57:11;21.30;99.90
36458;DHT22;22480;50.546;12.292;2022-07-12T06:59:37;21.50;99.90
36458;DHT22;22480;50.546;12.292;2022-07-12T07:02:03;21.40;99.90
36458;DHT22;22480;50.546;12.292;2022-07-12T07:04:29;21.40;99.90
36458;DHT22;22480;50.546;12.292;2022-07-12T07:06:55;21.40;99.90
36458;DHT22;22480;50.546;12.292;2022-07-12T07:09:21;21.40;99.90
36458;DHT22;22480;50.546;12.292;2022-07-12T07:11:47;21.00;99.90
36458;DHT22;22480;50.546;12.292;2022-07-12T07:14:13;20.50;99.90
36458;DHT22;22480;50.546;12.292;2022-07-12T07:16:39;20.10;99.90
36458;DHT22;22480;50.546;12.292;2022-07-12T07:19:04;19.90;99.90
36458;DHT22;22480;50.546;12.292;2022-07-12T07:21:31;20.00;99.90
36458;DHT22;22480;50.546;12.292;2022-07-12T07:23:57;20.00;99.90
36458;DHT22;22480;50.546;12.292;2022-07-12T07:26:22;19.90;99.90
36458;DHT22;22480;50.546;12.292;2022-07-12T07:28:48;19.70;99.90
36458;DHT22;22480;50.546;12.292;2022-07-12T07:31:36;19.90;99.90
36458;DHT22;22480;50.546;12.292;2022-07-12T07:34:03;20.90;99.90
36458;DHT22;22480;50.546;12.292;2022-07-12T07:36:29;21.60;99.90
36458;DHT22;22480;50.546;12.292;2022-07-12T07:38:54;22.50;97.30
36458;DHT22;22480;50.546;12.292;2022-07-12T07:41:20;23.30;94.70
36458;DHT22;22480;50.546;12.292;2022-07-12T07:43:46;23.50;93.60
36458;DHT22;22480;50.546;12.292;2022-07-12T07:46:12;23.00;92.20
36458;DHT22;22480;50.546;12.292;2022-07-12T07:48:37;21.90;92.20
36458;DHT22;22480;50.546;12.292;2022-07-12T07:51:03;20.60;94.40
36458;DHT22;22480;50.546;12.292;2022-07-12T07:53:29;19.80;96.50
36458;DHT22;22480;50.546;12.292;2022-07-12T07:55:55;19.50;98.70
36458;DHT22;22480;50.546;12.292;2022-07-12T07:58:20;19.30;99.90
36458;DHT22;22480;50.546;12.292;2022-07-12T08:00:49;19.80;99.70
36458;DHT22;22480;50.546;12.292;2022-07-12T08:03:14;20.40;97.80
36458;DHT22;22480;50.546;12.292;2022-07-12T08:05:40;21.50;98.00
36458;DHT22;22480;50.546;12.292;2022-07-12T08:08:06;22.00;95.50
36458;DHT22;22480;50.546;12.292;2022-07-12T08:10:31;22.20;93.30
36458;DHT22;22480;50.546;12.292;2022-07-12T08:12:57;22.20;92.90
36458;DHT22;22480;50.546;12.292;2022-07-12T08:15:23;22.30;92.90
36458;DHT22;22480;50.546;12.292;2022-07-12T08:17:49;22.60;93.30
36458;DHT22;22480;50.546;12.292;2022-07-12T08:20:14;22.90;91.50
36458;DHT22;22480;50.546;12.292;2022-07-12T08:22:44;22.90;91.20
36458;DHT22;22480;50.546;12.292;2022-07-12T08:25:13;22.80;87.40
36458;DHT22;22480;50.546;12.292;2022-07-12T08:27:39;22.90;89.20
36458;DHT22;22480;50.546;12.292;2022-07-12T08:30:06;23.60;87.90
36458;DHT22;22480;50.546;12.292;2022-07-12T08:32:32;24.00;88.20
36458;DHT22;22480;50.546;12.292;2022-07-12T08:34:57;23.50;88.60
36458;DHT22;22480;50.546;12.292;2022-07-12T08:37:23;23.30;88.00
36458;DHT22;22480;50.546;12.292;2022-07-12T08:39:49;23.10;86.90
36458;DHT22;22480;50.546;12.292;2022-07-12T08:42:16;22.60;89.20
36458;DHT22;22480;50.546;12.292;2022-07-12T08:44:53;22.20;90.70
36458;DHT22;22480;50.546;12.292;2022-07-12T08:47:19;21.90;91.10
36458;DHT22;22480;50.546;12.292;2022-07-12T08:52:43;22.00;90.30
36458;DHT22;22480;50.546;12.292;2022-07-12T08:55:27;22.20;86.20
36458;DHT22;22480;50.546;12.292;2022-07-12T08:57:56;21.70;85.70
36458;DHT22;22480;50.546;12.292;2022-07-12T09:00:23;22.00;89.10
36458;DHT22;22480;50.546;12.292;2022-07-12T09:02:50;22.80;87.80
36458;DHT22;22480;50.546;12.292;2022-07-12T09:05:20;23.00;84.30
36458;DHT22;22480;50.546;12.292;2022-07-12T09:07:47;22.80;85.80
36458;DHT22;22480;50.546;12.292;2022-07-12T09:10:14;22.60;86.50
36458;DHT22;22480;50.546;12.292;2022-07-12T09:12:40;22.80;85.10
36458;DHT22;22480;50.546;12.292;2022-07-12T09:15:22;22.80;82.30
36458;DHT22;22480;50.546;12.292;2022-07-12T09:18:02;23.10;79.60
36458;DHT22;22480;50.546;12.292;2022-07-12T09:20:31;23.80;78.70
36458;DHT22;22480;50.546;12.292;2022-07-12T09:23:00;24.60;76.60
36458;DHT22;22480;50.546;12.292;2022-07-12T09:25:26;25.10;72.40
36458;DHT22;22480;50.546;12.292;2022-07-12T09:27:59;24.90;72.10
36458;DHT22;22480;50.546;12.292;2022-07-12T09:30:27;25.00;71.10
36458;DHT22;22480;50.546;12.292;2022-07-12T09:33:01;25.30;73.60
36458;DHT22;22480;50.546;12.292;2022-07-12T09:38:51;24.10;68.30
36458;DHT22;22480;50.546;12.292;2022-07-12T09:41:23;23.50;71.80
36458;DHT22;22480;50.546;12.292;2022-07-12T09:43:49;22.80;71.90
36458;DHT22;22480;50.546;12.292;2022-07-12T09:46:16;23.20;75.80
36458;DHT22;22480;50.546;12.292;2022-07-12T09:48:45;24.00;68.00
36458;DHT22;22480;50.546;12.292;2022-07-12T09:51:15;25.00;69.50
36458;DHT22;22480;50.546;12.292;2022-07-12T09:53:47;25.80;65.00
36458;DHT22;22480;50.546;12.292;2022-07-12T09:56:15;25.90;65.60
36458;DHT22;22480;50.546;12.292;2022-07-12T09:58:57;25.60;67.50
36458;DHT22;22480;50.546;12.292;2022-07-12T10:01:23;25.00;65.30
36458;DHT22;22480;50.546;12.292;2022-07-12T10:03:51;24.60;69.00
36458;DHT22;22480;50.546;12.292;2022-07-12T10:06:25;24.80;67.90
36458;DHT22;22480;50.546;12.292;2022-07-12T10:08:51;25.40;68.50
36458;DHT22;22480;50.546;12.292;2022-07-12T10:11:18;26.60;65.50
36458;DHT22;22480;50.546;12.292;2022-07-12T10:13:45;27.50;67.00
36458;DHT22;22480;50.546;12.292;2022-07-12T10:16:13;27.60;63.60
36458;DHT22;22480;50.546;12.292;2022-07-12T10:18:39;27.30;61.60
36458;DHT22;22480;50.546;12.292;2022-07-12T10:21:20;26.30;60.50
36458;DHT22;22480;50.546;12.292;2022-07-12T10:23:47;25.40;63.00
36458;DHT22;22480;50.546;12.292;2022-07-12T10:31:21;25.10;62.50
36458;DHT22;22480;50.546;12.292;2022-07-12T10:39:23;27.10;63.40
36458;DHT22;22480;50.546;12.292;2022-07-12T10:44:38;26.40;60.40
36458;DHT22;22480;50.546;12.292;2022-07-12T10:47:04;25.40;63.60
36458;DHT22;22480;50.546;12.292;2022-07-12T10:49:31;25.30;62.60
36458;DHT22;22480;50.546;12.292;2022-07-12T10:55:20;26.20;60.60
36458;DHT22;22480;50.546;12.292;2022-07-12T10:57:41;26.70;61.90
36458;DHT22;22480;50.546;12.292;2022-07-12T11:00:10;28.20;55.80
36458;DHT22;22480;50.546;12.292;2022-07-12T11:02:36;28.10;55.30
36458;DHT22;22480;50.546;12.292;2022-07-12T11:05:02;28.30;54.50
36458;DHT22;22480;50.546;12.292;2022-07-12T11:07:29;27.90;50.60
36458;DHT22;22480;50.546;12.292;2022-07-12T11:09:56;26.90;54.30
36458;DHT22;22480;50.546;12.292;2022-07-12T11:12:31;27.40;54.50
36458;DHT22;22480;50.546;12.292;2022-07-12T11:15:01;26.80;56.20
36458;DHT22;22480;50.546;12.292;2022-07-12T11:17:31;26.70;59.10
36458;DHT22;22480;50.546;12.292;2022-07-12T11:20:09;27.10;57.80
36458;DHT22;22480;50.546;12.292;2022-07-12T11:22:41;27.50;58.70
36458;DHT22;22480;50.546;12.292;2022-07-12T11:25:09;27.40;57.50
36458;DHT22;22480;50.546;12.292;2022-07-12T11:27:35;27.20;55.80
36458;DHT22;22480;50.546;12.292;2022-07-12T11:30:01;27.90;56.60
36458;DHT22;22480;50.546;12.292;2022-07-12T11:32:35;27.60;57.80
36458;DHT22;22480;50.546;12.292;2022-07-12T11:35:01;27.00;57.30
36458;DHT22;22480;50.546;12.292;2022-07-12T11:37:26;27.00;57.20
36458;DHT22;22480;50.546;12.292;2022-07-12T11:39:52;27.40;59.50
36458;DHT22;22480;50.546;12.292;2022-07-12T11:42:18;27.80;57.30
36458;DHT22;22480;50.546;12.292;2022-07-12T11:44:48;28.00;53.70
36458;DHT22;22480;50.546;12.292;2022-07-12T11:47:15;28.30;53.70
36458;DHT22;22480;50.546;12.292;2022-07-12T11:49:52;29.10;55.10
36458;DHT22;22480;50.546;12.292;2022-07-12T11:52:20;29.30;52.90
36458;DHT22;22480;50.546;12.292;2022-07-12T11:54:47;28.90;59.00
36458;DHT22;22480;50.546;12.292;2022-07-12T11:57:14;27.80;53.30
36458;DHT22;22480;50.546;12.292;2022-07-12T11:59:41;27.60;58.80
36458;DHT22;22480;50.546;12.292;2022-07-12T12:02:10;28.20;57.40
36458;DHT22;22480;50.546;12.292;2022-07-12T12:04:52;29.00;54.40
36458;DHT22;22480;50.546;12.292;2022-07-12T12:07:20;30.10;55.40
36458;DHT22;22480;50.546;12.292;2022-07-12T12:10:11;31.40;52.70
36458;DHT22;22480;50.546;12.292;2022-07-12T12:15:12;31.60;51.90
36458;DHT22;22480;50.546;12.292;2022-07-12T12:17:53;31.40;49.00
36458;DHT22;22480;50.546;12.292;2022-07-12T12:20:27;32.00;53.10
36458;DHT22;22480;50.546;12.292;2022-07-12T12:22:55;32.10;48.40
36458;DHT22;22480;50.546;12.292;2022-07-12T12:25:22;31.90;48.00
36458;DHT22;22480;50.546;12.292;2022-07-12T12:28:08;32.20;52.50
36458;DHT22;22480;50.546;12.292;2022-07-12T12:30:35;32.10;47.20
36458;DHT22;22480;50.546;12.292;2022-07-12T12:33:03;32.40;49.10
36458;DHT22;22480;50.546;12.292;2022-07-12T12:35:34;32.30;51.40
36458;DHT22;22480;50.546;12.292;2022-07-12T12:38:14;31.40;51.90
36458;DHT22;22480;50.546;12.292;2022-07-12T12:40:40;31.00;52.30
36458;DHT22;22480;50.546;12.292;2022-07-12T12:43:19;31.40;51.20
36458;DHT22;22480;50.546;12.292;2022-07-12T12:46:03;31.80;51.30
36458;DHT22;22480;50.546;12.292;2022-07-12T12:48:30;31.80;50.80
36458;DHT22;22480;50.546;12.292;2022-07-12T12:51:09;32.10;53.00
36458;DHT22;22480;50.546;12.292;2022-07-12T12:53:36;32.30;48.90
36458;DHT22;22480;50.546;12.292;2022-07-12T12:58:31;31.50;47.60
36458;DHT22;22480;50.546;12.292;2022-07-12T13:00:57;30.80;48.20
36458;DHT22;22480;50.546;12.292;2022-07-12T13:03:23;29.20;49.40
36458;DHT22;22480;50.546;12.292;2022-07-12T13:05:52;28.90;52.20
36458;DHT22;22480;50.546;12.292;2022-07-12T13:08:18;29.00;52.20
36458;DHT22;22480;50.546;12.292;2022-07-12T13:10:45;30.50;56.60
36458;DHT22;22480;50.546;12.292;2022-07-12T13:13:11;31.50;50.60
36458;DHT22;22480;50.546;12.292;2022-07-12T13:15:40;31.30;48.60
36458;DHT22;22480;50.546;12.292;2022-07-12T13:18:06;30.90;52.90
36458;DHT22;22480;50.546;12.292;2022-07-12T13:20:32;31.40;53.50
36458;DHT22;22480;50.546;12.292;2022-07-12T13:22:59;30.80;52.10
36458;DHT22;22480;50.546;12.292;2022-07-12T13:25:25;30.80;54.30
36458;DHT22;22480;50.546;12.292;2022-07-12T13:27:52;31.00;50.20
36458;DHT22;22480;50.546;12.292;2022-07-12T13:30:19;31.10;50.00
36458;DHT22;22480;50.546;12.292;2022-07-12T13:32:45;31.70;51.40
36458;DHT22;22480;50.546;12.292;2022-07-12T13:35:12;31.50;46.90
36458;DHT22;22480;50.546;12.292;2022-07-12T13:37:40;30.60;51.00
36458;DHT22;22480;50.546;12.292;2022-07-12T13:40:06;31.40;48.60
36458;DHT22;22480;50.546;12.292;2022-07-12T13:42:49;31.80;50.90
36458;DHT22;22480;50.546;12.292;2022-07-12T13:45:17;32.90;51.80
36458;DHT22;22480;50.546;12.292;2022-07-12T13:47:43;33.10;45.70
36458;DHT22;22480;50.546;12.292;2022-07-12T13:50:12;31.20;48.20
36458;DHT22;22480;50.546;12.292;2022-07-12T13:52:38;31.20;48.20
36458;DHT22;22480;50.546;12.292;2022-07-12T13:55:05;31.40;47.80
36458;DHT22;22480;50.546;12.292;2022-07-12T13:57:31;32.20;52.30
36458;DHT22;22480;50.546;12.292;2022-07-12T13:59:58;33.20;49.40
36458;DHT22;22480;50.546;12.292;2022-07-12T14:02:24;33.40;48.40
36458;DHT22;22480;50.546;12.292;2022-07-12T14:04:51;33.20;46.80
36458;DHT22;22480;50.546;12.292;2022-07-12T14:07:17;32.80;46.80
36458;DHT22;22480;50.546;12.292;2022-07-12T14:09:43;32.10;48.40
36458;DHT22;22480;50.546;12.292;2022-07-12T14:12:08;32.00;52.80
36458;DHT22;22480;50.546;12.292;2022-07-12T14:14:35;32.40;47.40
36458;DHT22;22480;50.546;12.292;2022-07-12T14:17:20;32.60;49.00
36458;DHT22;22480;50.546;12.292;2022-07-12T14:19:46;32.70;46.90
36458;DHT22;22480;50.546;12.292;2022-07-12T14:22:12;33.00;48.40
36458;DHT22;22480;50.546;12.292;2022-07-12T14:24:37;32.60;48.50
36458;DHT22;22480;50.546;12.292;2022-07-12T14:27:03;32.60;46.80
36458;DHT22;22480;50.546;12.292;2022-07-12T14:29:31;33.10;44.70
36458;DHT22;22480;50.546;12.292;2022-07-12T14:31:57;32.80;45.80
36458;DHT22;22480;50.546;12.292;2022-07-12T14:34:23;32.90;45.60
36458;DHT22;22480;50.546;12.292;2022-07-12T14:36:49;33.30;49.30
36458;DHT22;22480;50.546;12.292;2022-07-12T14:39:15;33.30;44.90
36458;DHT22;22480;50.546;12.292;2022-07-12T14:41:41;32.90;46.10
36458;DHT22;22480;50.546;12.292;2022-07-12T14:44:06;32.90;46.30
36458;DHT22;22480;50.546;12.292;2022-07-12T14:46:33;33.30;44.60
36458;DHT22;22480;50.546;12.292;2022-07-12T14:48:59;33.60;46.20
36458;DHT22;22480;50.546;12.292;2022-07-12T14:51:25;33.80;47.10
36458;DHT22;22480;50.546;12.292;2022-07-12T14:53:50;34.10;46.90
36458;DHT22;22480;50.546;12.292;2022-07-12T14:56:18;34.80;47.50
36458;DHT22;22480;50.546;12.292;2022-07-12T14:58:44;35.40;46.20
36458;DHT22;22480;50.546;12.292;2022-07-12T15:01:10;34.90;45.60
36458;DHT22;22480;50.546;12.292;2022-07-12T15:03:36;33.90;46.10
36458;DHT22;22480;50.546;12.292;2022-07-12T15:06:02;32.70;46.10
36458;DHT22;22480;50.546;12.292;2022-07-12T15:08:27;31.90;48.20
36458;DHT22;22480;50.546;12.292;2022-07-12T15:10:53;32.50;50.70
36458;DHT22;22480;50.546;12.292;2022-07-12T15:13:18;33.40;46.20
36458;DHT22;22480;50.546;12.292;2022-07-12T15:15:44;32.60;45.20
36458;DHT22;22480;50.546;12.292;2022-07-12T15:18:10;32.30;45.70
36458;DHT22;22480;50.546;12.292;2022-07-12T15:20:35;32.60;45.50
36458;DHT22;22480;50.546;12.292;2022-07-12T15:23:01;33.00;46.30
36458;DHT22;22480;50.546;12.292;2022-07-12T15:25:28;32.30;44.20
36458;DHT22;22480;50.546;12.292;2022-07-12T15:27:54;32.00;47.60
36458;DHT22;22480;50.546;12.292;2022-07-12T15:30:20;32.90;49.20
36458;DHT22;22480;50.546;12.292;2022-07-12T15:32:46;33.70;46.50
36458;DHT22;22480;50.546;12.292;2022-07-12T15:35:12;33.60;46.10
36458;DHT22;22480;50.546;12.292;2022-07-12T15:37:38;33.80;46.10
36458;DHT22;22480;50.546;12.292;2022-07-12T15:40:04;34.00;45.20
36458;DHT22;22480;50.546;12.292;2022-07-12T15:42:31;34.40;44.60
36458;DHT22;22480;50.546;12.292;2022-07-12T15:44:57;33.20;43.90